createdAt,value
2023-01-30T00:02:16.210Z,5.46
2023-01-30T00:04:44.593Z,5.49
2023-01-30T00:07:12.592Z,5.39
2023-01-30T00:09:41.245Z,5.44
2023-01-30T00:12:09.589Z,5.47
2023-01-30T00:14:37.647Z,5.46
2023-01-30T00:17:06.968Z,5.44
2023-01-30T00:19:35.353Z,5.42
2023-01-30T00:22:03.451Z,5.36
2023-01-30T00:24:31.855Z,5.51
2023-01-30T00:27:00.314Z,5.40
2023-01-30T00:29:28.478Z,5.48
2023-01-30T00:31:56.757Z,5.51
2023-01-30T00:34:26.788Z,5.64
2023-01-30T00:37:07.449Z,5.54
2023-01-30T00:39:36.358Z,5.67
2023-01-30T00:42:22.610Z,5.66
2023-01-30T00:45:08.528Z,5.69
2023-01-30T00:47:36.582Z,5.72
2023-01-30T00:50:07.222Z,5.69
2023-01-30T00:52:37.029Z,5.60
2023-01-30T00:55:05.964Z,5.64
2023-01-30T00:57:34.108Z,5.72
2023-01-30T01:00:02.317Z,5.77
2023-01-30T01:02:30.738Z,5.77
2023-01-30T01:04:59.833Z,5.73
2023-01-30T01:07:29.717Z,5.81
2023-01-30T01:09:59.337Z,5.73
2023-01-30T01:12:27.413Z,5.87
2023-01-30T01:14:55.495Z,5.81
2023-01-30T01:17:23.883Z,5.88
2023-01-30T01:19:51.939Z,5.89
2023-01-30T01:22:19.915Z,5.87
2023-01-30T01:24:49.651Z,6.00
2023-01-30T01:27:18.807Z,5.95
2023-01-30T01:29:46.918Z,5.97
2023-01-30T01:32:17.230Z,5.95
2023-01-30T01:34:45.424Z,5.95
2023-01-30T01:37:13.993Z,6.07
2023-01-30T01:40:01.636Z,6.09
2023-01-30T01:42:36.043Z,6.07
2023-01-30T01:45:17.533Z,6.11
2023-01-30T01:47:53.591Z,6.15
2023-01-30T01:50:26.638Z,6.21
2023-01-30T01:52:56.514Z,6.29
2023-01-30T01:55:26.201Z,6.33
2023-01-30T01:57:58.907Z,6.47
2023-01-30T02:00:27.762Z,6.54
2023-01-30T02:02:59.504Z,6.37
2023-01-30T02:05:31.930Z,6.33
2023-01-30T02:08:04.176Z,6.52
2023-01-30T02:10:41.365Z,6.49
2023-01-30T02:13:11.094Z,6.61
2023-01-30T02:15:40.318Z,6.61
2023-01-30T02:18:08.884Z,6.57
2023-01-30T02:20:57.006Z,6.54
2023-01-30T02:24:03.803Z,6.62
2023-01-30T02:26:48.562Z,6.62
2023-01-30T02:29:38.545Z,6.80
2023-01-30T02:32:13.952Z,6.83
2023-01-30T02:34:51.782Z,6.75
2023-01-30T02:37:30.609Z,6.76
2023-01-30T02:40:16.782Z,6.69
2023-01-30T02:42:52.728Z,6.57
2023-01-30T02:45:30.519Z,6.86
2023-01-30T02:48:03.810Z,6.88
2023-01-30T02:50:37.774Z,6.69
2023-01-30T02:53:07.277Z,7.04
2023-01-30T02:55:36.461Z,6.91
2023-01-30T02:58:05.752Z,7.09
2023-01-30T03:00:49.813Z,7.10
2023-01-30T03:03:42.251Z,7.01
2023-01-30T03:06:27.013Z,6.96
2023-01-30T03:09:05.933Z,7.03
2023-01-30T03:11:45.619Z,7.04
2023-01-30T03:14:22.453Z,6.73
2023-01-30T03:16:55.390Z,6.99
2023-01-30T03:19:25.311Z,6.85
2023-01-30T03:21:53.502Z,7.01
2023-01-30T03:24:22.097Z,6.91
2023-01-30T03:26:56.199Z,6.81
2023-01-30T03:29:24.998Z,7.01
2023-01-30T03:31:53.392Z,7.10
2023-01-30T03:34:21.452Z,7.12
2023-01-30T03:36:52.007Z,7.04
2023-01-30T03:39:20.679Z,7.02
2023-01-30T03:41:48.845Z,7.05
2023-01-30T03:44:17.702Z,7.07
2023-01-30T03:46:46.232Z,7.09
2023-01-30T03:49:14.230Z,7.12
2023-01-30T03:51:42.389Z,7.28
2023-01-30T03:54:12.221Z,7.22
2023-01-30T03:56:40.394Z,7.20
2023-01-30T03:59:09.079Z,7.29
2023-01-30T04:01:37.943Z,7.23
2023-01-30T04:04:06.785Z,7.25
2023-01-30T04:06:36.596Z,7.11
2023-01-30T04:09:05.840Z,7.26
2023-01-30T04:11:36.373Z,7.09
2023-01-30T04:14:04.643Z,7.03
2023-01-30T04:16:35.135Z,7.27
2023-01-30T04:19:05.617Z,7.36
2023-01-30T04:21:34.193Z,7.32
2023-01-30T04:24:02.425Z,7.16
2023-01-30T04:26:30.552Z,7.14
2023-01-30T04:29:00.641Z,7.18
2023-01-30T04:31:28.931Z,7.14
2023-01-30T04:33:57.342Z,7.43
2023-01-30T04:36:25.910Z,7.41
2023-01-30T04:38:54.298Z,7.27
2023-01-30T04:41:22.705Z,7.20
2023-01-30T04:43:51.405Z,7.39
2023-01-30T04:46:21.178Z,7.36
2023-01-30T04:48:49.292Z,7.54
2023-01-30T04:51:17.643Z,7.33
2023-01-30T04:53:45.813Z,7.52
2023-01-30T04:56:14.590Z,7.41
2023-01-30T04:58:42.917Z,7.40
2023-01-30T05:01:16.979Z,7.17
2023-01-30T05:03:46.774Z,7.49
2023-01-30T05:06:14.786Z,7.48
2023-01-30T05:08:43.481Z,7.45
2023-01-30T05:11:12.581Z,7.18
2023-01-30T05:13:40.681Z,7.33
2023-01-30T05:16:08.743Z,7.32
2023-01-30T05:18:37.140Z,7.42
2023-01-30T05:21:09.083Z,7.42
2023-01-30T05:23:37.481Z,7.33
2023-01-30T05:26:06.265Z,7.49
2023-01-30T05:28:34.911Z,7.65
2023-01-30T05:31:03.866Z,7.72
2023-01-30T05:33:32.048Z,7.64
2023-01-30T05:36:00.542Z,7.74
2023-01-30T05:38:30.495Z,7.50
2023-01-30T05:41:02.796Z,7.59
2023-01-30T05:43:31.581Z,7.63
2023-01-30T05:46:01.078Z,7.59
2023-01-30T05:48:29.786Z,7.57
2023-01-30T05:51:00.237Z,7.88
2023-01-30T05:53:31.935Z,7.70
2023-01-30T05:56:02.332Z,7.82
2023-01-30T05:58:30.903Z,7.60
2023-01-30T06:01:02.196Z,7.75
2023-01-30T06:03:30.715Z,7.78
2023-01-30T06:05:58.876Z,7.69
2023-01-30T06:08:26.885Z,7.64
2023-01-30T06:10:56.565Z,7.52
2023-01-30T06:13:24.559Z,7.59
2023-01-30T06:15:53.862Z,7.63
2023-01-30T06:18:22.443Z,7.58
2023-01-30T06:20:50.759Z,7.55
2023-01-30T06:23:19.643Z,7.93
2023-01-30T06:25:49.432Z,7.76
2023-01-30T06:28:19.508Z,7.84
2023-01-30T06:30:47.934Z,7.62
2023-01-30T06:33:16.495Z,7.87
2023-01-30T06:35:45.381Z,7.72
2023-01-30T06:38:14.294Z,7.98
2023-01-30T06:40:45.139Z,7.92
2023-01-30T06:43:13.715Z,7.98
2023-01-30T06:45:43.222Z,7.99
2023-01-30T06:48:11.576Z,7.60
2023-01-30T06:50:39.858Z,7.90
2023-01-30T06:53:08.963Z,7.96
2023-01-30T06:55:38.161Z,7.85
2023-01-30T06:58:08.598Z,8.03
2023-01-30T07:00:39.576Z,8.20
2023-01-30T07:03:11.833Z,8.07
2023-01-30T07:05:40.426Z,8.00
2023-01-30T07:08:09.435Z,7.87
2023-01-30T07:10:37.694Z,8.03
2023-01-30T07:13:06.181Z,8.02
2023-01-30T07:15:34.672Z,8.14
2023-01-30T07:18:02.759Z,7.79
2023-01-30T07:20:32.273Z,8.01
2023-01-30T07:23:00.772Z,7.94
2023-01-30T07:25:29.636Z,8.00
2023-01-30T07:28:00.045Z,8.20
2023-01-30T07:30:30.861Z,8.01
2023-01-30T07:33:00.525Z,8.14
2023-01-30T07:35:31.343Z,8.36
2023-01-30T07:38:00.859Z,8.33
2023-01-30T07:40:29.548Z,7.95
2023-01-30T07:42:59.394Z,8.38
2023-01-30T07:45:30.831Z,8.34
2023-01-30T07:47:59.122Z,8.34
2023-01-30T07:50:27.107Z,8.21
2023-01-30T07:52:55.069Z,8.67
2023-01-30T07:55:24.956Z,8.72
2023-01-30T07:57:53.066Z,8.37
2023-01-30T08:00:21.546Z,8.51
2023-01-30T08:02:49.912Z,8.60
2023-01-30T08:05:17.986Z,8.77
2023-01-30T08:07:47.416Z,8.79
2023-01-30T08:10:16.815Z,8.83
2023-01-30T08:12:46.527Z,8.90
2023-01-30T08:15:14.642Z,8.76
2023-01-30T08:17:42.979Z,8.76
2023-01-30T08:20:12.288Z,8.78
2023-01-30T08:22:40.264Z,9.03
2023-01-30T08:25:09.273Z,9.04
2023-01-30T08:27:37.251Z,9.03
2023-01-30T08:30:07.766Z,9.07
2023-01-30T08:32:35.989Z,8.96
2023-01-30T08:35:04.005Z,9.05
2023-01-30T08:37:32.066Z,8.90
2023-01-30T08:40:00.338Z,8.79
2023-01-30T08:42:28.471Z,8.87
2023-01-30T08:44:56.446Z,8.98
2023-01-30T08:47:26.439Z,8.89
2023-01-30T08:49:54.556Z,8.94
2023-01-30T08:52:22.627Z,9.13
2023-01-30T08:54:51.000Z,9.05
2023-01-30T08:57:19.388Z,9.21
2023-01-30T08:59:47.688Z,9.35
2023-01-30T09:02:15.933Z,9.38
2023-01-30T09:04:46.960Z,9.36
2023-01-30T09:07:15.228Z,9.16
2023-01-30T09:09:43.223Z,9.57
2023-01-30T09:12:11.359Z,9.58
2023-01-30T09:14:40.088Z,9.54
2023-01-30T09:17:08.067Z,9.37
2023-01-30T09:19:37.283Z,9.42
2023-01-30T09:22:07.968Z,9.67
2023-01-30T09:24:36.205Z,9.42
2023-01-30T09:27:04.288Z,9.46
2023-01-30T09:29:32.664Z,9.43
2023-01-30T09:32:00.866Z,9.23
2023-01-30T09:34:29.449Z,9.76
2023-01-30T09:37:00.236Z,9.71
2023-01-30T09:39:30.202Z,9.61
2023-01-30T09:42:26.839Z,9.70
2023-01-30T09:45:25.268Z,9.80
2023-01-30T09:48:02.725Z,9.87
2023-01-30T09:50:49.068Z,9.80
2023-01-30T09:53:24.514Z,10.07
2023-01-30T09:55:53.949Z,9.99
2023-01-30T09:58:25.369Z,9.98
2023-01-30T10:00:58.053Z,10.03
2023-01-30T10:03:31.057Z,10.53
2023-01-30T10:06:03.317Z,10.11
2023-01-30T10:08:51.156Z,10.15
2023-01-30T10:11:31.234Z,10.23
2023-01-30T10:14:14.924Z,10.30
2023-01-30T10:16:51.206Z,10.29
2023-01-30T10:19:37.257Z,10.41
2023-01-30T10:22:15.414Z,10.25
2023-01-30T10:24:57.430Z,10.42
2023-01-30T10:27:30.572Z,10.39
2023-01-30T10:30:02.208Z,10.52
2023-01-30T10:32:33.918Z,10.16
2023-01-30T10:35:09.055Z,10.44
2023-01-30T10:37:45.816Z,10.31
2023-01-30T10:40:24.246Z,10.15
2023-01-30T10:43:00.491Z,10.46
2023-01-30T10:45:38.882Z,10.06
2023-01-30T10:48:42.194Z,10.52
2023-01-30T10:51:22.653Z,10.44
2023-01-30T10:53:57.038Z,10.40
2023-01-30T10:56:32.761Z,10.73
2023-01-30T10:59:11.508Z,10.85
2023-01-30T11:01:45.199Z,10.99
2023-01-30T11:04:23.942Z,11.06
2023-01-30T11:06:53.626Z,10.98
2023-01-30T11:09:23.226Z,11.09
2023-01-30T11:11:54.253Z,11.39
2023-01-30T11:14:23.748Z,11.14
2023-01-30T11:16:54.277Z,10.53
2023-01-30T11:19:25.929Z,11.21
2023-01-30T11:21:56.502Z,11.31
2023-01-30T11:24:30.635Z,11.30
2023-01-30T11:27:11.569Z,11.08
2023-01-30T11:29:41.148Z,11.44
2023-01-30T11:32:15.756Z,11.46
2023-01-30T11:34:45.384Z,11.62
2023-01-30T11:37:15.985Z,11.50
2023-01-30T11:39:52.862Z,11.41
2023-01-30T11:42:25.332Z,11.85
2023-01-30T11:45:16.193Z,12.13
2023-01-30T11:47:57.238Z,11.72
2023-01-30T11:50:36.720Z,11.99
2023-01-30T11:53:20.840Z,11.98
2023-01-30T11:56:02.151Z,11.61
2023-01-30T11:58:33.987Z,11.85
2023-01-30T12:01:05.352Z,11.80
2023-01-30T12:03:34.540Z,11.92
2023-01-30T12:06:02.815Z,12.21
2023-01-30T12:08:42.170Z,12.38
2023-01-30T12:11:27.818Z,12.25
2023-01-30T12:14:00.876Z,12.34
2023-01-30T12:16:47.620Z,12.38
2023-01-30T12:19:30.493Z,12.77
2023-01-30T12:22:06.464Z,12.74
2023-01-30T12:24:42.010Z,12.79
2023-01-30T12:27:17.576Z,12.76
2023-01-30T12:29:55.273Z,13.08
2023-01-30T12:32:41.047Z,13.43
2023-01-30T12:35:16.717Z,13.71
2023-01-30T12:38:00.737Z,14.06
2023-01-30T12:41:01.429Z,14.51
2023-01-30T12:44:07.438Z,14.38
2023-01-30T12:46:52.499Z,13.72
2023-01-30T12:49:45.345Z,14.06
2023-01-30T12:52:31.998Z,13.81
2023-01-30T12:55:07.647Z,13.37
2023-01-30T12:57:41.578Z,13.49
2023-01-30T13:00:30.011Z,13.38
2023-01-30T13:03:17.415Z,13.56
2023-01-30T13:05:55.144Z,13.27
2023-01-30T13:08:38.562Z,13.37
2023-01-30T13:11:22.416Z,13.08
2023-01-30T13:13:56.216Z,12.84
2023-01-30T13:16:30.685Z,12.87
2023-01-30T13:19:04.233Z,12.92
2023-01-30T13:21:42.449Z,12.53
2023-01-30T13:24:22.849Z,12.88
2023-01-30T13:26:53.247Z,12.46
2023-01-30T13:29:30.095Z,12.65
2023-01-30T13:32:02.815Z,12.55
2023-01-30T13:34:34.972Z,12.64
2023-01-30T13:37:09.860Z,12.70
2023-01-30T13:39:44.604Z,12.86
2023-01-30T13:42:22.922Z,12.75
2023-01-30T13:44:52.337Z,12.98
2023-01-30T13:47:33.308Z,12.94
2023-01-30T13:50:10.856Z,13.18
2023-01-30T13:52:46.869Z,13.23
2023-01-30T13:55:27.077Z,13.66
2023-01-30T13:58:00.895Z,13.76
2023-01-30T14:00:34.002Z,13.44
2023-01-30T14:03:30.367Z,13.34
2023-01-30T14:06:03.610Z,13.14
2023-01-30T14:08:40.790Z,12.80
2023-01-30T14:11:29.119Z,12.82
2023-01-30T14:14:03.485Z,12.60
2023-01-30T14:16:43.009Z,12.47
2023-01-30T14:19:30.615Z,12.35
2023-01-30T14:22:01.362Z,11.54
2023-01-30T14:24:31.700Z,11.61
2023-01-30T14:27:05.855Z,11.11
2023-01-30T14:29:56.514Z,10.53
2023-01-30T14:32:51.707Z,10.51
2023-01-30T14:35:28.153Z,10.10
2023-01-30T14:38:13.658Z,10.03
2023-01-30T14:40:48.397Z,10.38
2023-01-30T14:43:36.304Z,10.03
2023-01-30T14:46:08.565Z,10.53
2023-01-30T14:48:45.007Z,10.19
2023-01-30T14:51:20.820Z,10.42
2023-01-30T14:53:58.390Z,10.48
2023-01-30T14:56:45.607Z,10.69
2023-01-30T14:59:25.123Z,10.34
2023-01-30T15:02:09.474Z,10.61
2023-01-30T15:04:44.843Z,10.42
2023-01-30T15:07:17.627Z,10.60
2023-01-30T15:09:54.345Z,10.41
2023-01-30T15:12:46.819Z,10.68
2023-01-30T15:15:22.088Z,10.78
2023-01-30T15:18:08.709Z,10.59
2023-01-30T15:20:50.440Z,10.29
2023-01-30T15:23:47.867Z,10.42
2023-01-30T15:26:29.887Z,10.65
2023-01-30T15:29:18.459Z,10.21
2023-01-30T15:31:55.490Z,10.51
2023-01-30T15:34:24.525Z,10.29
2023-01-30T15:36:52.505Z,10.11
2023-01-30T15:39:23.732Z,9.91
2023-01-30T15:41:53.537Z,10.30
2023-01-30T15:44:51.531Z,10.42
2023-01-30T15:47:32.404Z,10.36
2023-01-30T15:50:03.777Z,10.38
2023-01-30T15:52:40.103Z,10.29
2023-01-30T15:55:16.137Z,10.23
2023-01-30T15:57:49.231Z,10.46
2023-01-30T16:00:27.744Z,10.54
2023-01-30T16:02:56.893Z,10.23
2023-01-30T16:05:26.784Z,10.26
2023-01-30T16:07:56.285Z,10.19
2023-01-30T16:10:26.511Z,9.95
2023-01-30T16:12:56.961Z,10.39
2023-01-30T16:15:33.557Z,10.17
2023-01-30T16:18:06.189Z,10.15
2023-01-30T16:20:58.974Z,10.44
2023-01-30T16:23:32.611Z,10.01
2023-01-30T16:26:01.785Z,10.53
2023-01-30T16:28:32.062Z,10.32
2023-01-30T16:31:04.463Z,9.91
2023-01-30T16:33:36.481Z,9.73
2023-01-30T16:36:07.667Z,10.21
2023-01-30T16:38:44.323Z,10.09
2023-01-30T16:41:31.447Z,9.79
2023-01-30T16:44:11.315Z,10.09
2023-01-30T16:46:53.292Z,10.33
2023-01-30T16:49:24.847Z,9.88
2023-01-30T16:52:03.041Z,10.25
2023-01-30T16:54:33.424Z,10.20
2023-01-30T16:57:03.395Z,10.07
2023-01-30T16:59:33.537Z,10.33
2023-01-30T17:02:07.347Z,10.00
2023-01-30T17:04:41.227Z,9.92
2023-01-30T17:07:34.060Z,10.11
2023-01-30T17:10:02.136Z,10.21
2023-01-30T17:12:38.865Z,10.23
2023-01-30T17:15:30.536Z,10.44
2023-01-30T17:18:00.627Z,9.96
2023-01-30T17:20:39.827Z,10.00
2023-01-30T17:23:10.852Z,9.76
2023-01-30T17:25:42.928Z,9.52
2023-01-30T17:28:18.587Z,9.72
2023-01-30T17:30:46.668Z,9.30
2023-01-30T17:33:16.433Z,9.43
2023-01-30T17:35:45.767Z,9.31
2023-01-30T17:38:13.813Z,9.37
2023-01-30T17:40:43.093Z,9.30
2023-01-30T17:43:13.111Z,9.32
2023-01-30T17:45:41.659Z,9.57
2023-01-30T17:48:13.211Z,9.59
2023-01-30T17:50:43.018Z,9.44
2023-01-30T17:53:11.091Z,9.16
2023-01-30T17:55:39.578Z,9.45
2023-01-30T17:58:07.992Z,9.26
2023-01-30T18:00:36.048Z,9.33
2023-01-30T18:03:04.610Z,9.66
2023-01-30T18:05:32.676Z,9.39
2023-01-30T18:08:02.017Z,9.60
2023-01-30T18:10:30.636Z,9.59
2023-01-30T18:12:58.820Z,9.61
2023-01-30T18:15:27.104Z,9.67
2023-01-30T18:17:56.726Z,9.43
2023-01-30T18:20:25.158Z,9.97
2023-01-30T18:22:53.476Z,10.07
2023-01-30T18:25:23.219Z,9.49
2023-01-30T18:27:51.379Z,9.70
2023-01-30T18:30:20.251Z,10.02
2023-01-30T18:32:53.881Z,10.11
2023-01-30T18:35:23.596Z,10.00
2023-01-30T18:37:52.085Z,9.99
2023-01-30T18:40:21.726Z,10.33
2023-01-30T18:42:51.296Z,10.01
2023-01-30T18:45:19.662Z,9.54
2023-01-30T18:47:47.945Z,10.08
2023-01-30T18:50:15.987Z,9.99
2023-01-30T18:52:44.245Z,10.01
2023-01-30T18:55:12.226Z,9.99
2023-01-30T18:57:40.489Z,9.72
2023-01-30T19:00:12.415Z,9.86
2023-01-30T19:02:40.550Z,9.92
2023-01-30T19:05:09.592Z,9.90
2023-01-30T19:07:37.667Z,9.76
2023-01-30T19:10:06.147Z,10.00
2023-01-30T19:12:52.085Z,9.93
2023-01-30T19:15:21.565Z,9.93
2023-01-30T19:17:49.843Z,9.99
2023-01-30T19:20:20.169Z,10.07
2023-01-30T19:22:49.888Z,9.96
2023-01-30T19:25:18.176Z,9.87
2023-01-30T19:27:46.429Z,9.90
2023-01-30T19:30:15.607Z,10.32
2023-01-30T19:32:45.350Z,10.00
2023-01-30T19:35:13.601Z,10.08
2023-01-30T19:37:42.010Z,10.00
2023-01-30T19:40:11.578Z,9.75
2023-01-30T19:42:43.861Z,9.80
2023-01-30T19:45:13.626Z,10.28
2023-01-30T19:47:41.582Z,10.11
2023-01-30T19:50:12.517Z,9.85
2023-01-30T19:52:41.754Z,9.93
2023-01-30T19:55:10.421Z,10.08
2023-01-30T19:57:38.966Z,10.10
2023-01-30T20:00:08.608Z,10.16
2023-01-30T20:02:37.703Z,10.04
2023-01-30T20:05:06.446Z,9.97
2023-01-30T20:07:37.201Z,10.32
2023-01-30T20:10:06.496Z,9.93
2023-01-30T20:12:35.666Z,10.13
2023-01-30T20:15:04.752Z,10.22
2023-01-30T20:17:33.528Z,9.88
2023-01-30T20:20:01.713Z,10.38
2023-01-30T20:22:29.831Z,10.12
2023-01-30T20:24:59.417Z,10.34
2023-01-30T20:27:27.394Z,10.12
2023-01-30T20:29:55.577Z,10.60
2023-01-30T20:32:24.067Z,10.49
2023-01-30T20:34:52.365Z,10.34
2023-01-30T20:37:20.442Z,10.07
2023-01-30T20:39:50.994Z,10.17
2023-01-30T20:42:20.379Z,10.56
2023-01-30T20:44:48.878Z,10.23
2023-01-30T20:47:16.967Z,9.84
2023-01-30T20:49:45.199Z,10.22
2023-01-30T20:52:13.565Z,10.13
2023-01-30T20:54:41.555Z,10.54
2023-01-30T20:57:10.075Z,10.70
2023-01-30T20:59:39.762Z,10.44
2023-01-30T21:02:07.854Z,9.82
2023-01-30T21:04:36.027Z,10.08
2023-01-30T21:07:04.962Z,10.23
2023-01-30T21:09:33.011Z,10.45
2023-01-30T21:12:01.084Z,10.33
2023-01-30T21:14:29.587Z,10.66
2023-01-30T21:16:59.164Z,10.03
2023-01-30T21:19:27.137Z,10.48
2023-01-30T21:21:57.447Z,10.15
2023-01-30T21:24:28.084Z,10.31
2023-01-30T21:26:56.812Z,10.24
2023-01-30T21:29:27.451Z,10.01
2023-01-30T21:31:56.116Z,10.02
2023-01-30T21:34:26.138Z,10.22
2023-01-30T21:37:11.817Z,10.27
2023-01-30T21:39:57.775Z,10.30
2023-01-30T21:42:43.510Z,10.02
2023-01-30T21:45:11.914Z,10.46
2023-01-30T21:47:40.019Z,10.17
2023-01-30T21:50:10.867Z,10.35
2023-01-30T21:52:39.187Z,9.97
2023-01-30T21:55:07.857Z,10.07
2023-01-30T21:57:36.560Z,10.34
2023-01-30T22:00:05.630Z,10.08
2023-01-30T22:02:33.574Z,10.07
2023-01-30T22:05:01.805Z,10.29
2023-01-30T22:07:31.622Z,9.69
2023-01-30T22:10:01.495Z,10.07
2023-01-30T22:12:31.740Z,9.94
2023-01-30T22:14:59.865Z,10.07
2023-01-30T22:17:28.005Z,10.13
2023-01-30T22:19:56.443Z,10.00
2023-01-30T22:22:25.495Z,10.20
2023-01-30T22:24:54.896Z,10.21
2023-01-30T22:27:23.145Z,10.02
2023-01-30T22:29:51.637Z,9.88
2023-01-30T22:32:19.736Z,10.12
2023-01-30T22:34:48.082Z,10.27
2023-01-30T22:37:16.721Z,10.07
2023-01-30T22:39:44.692Z,10.09
2023-01-30T22:42:14.433Z,10.33
2023-01-30T22:44:42.488Z,10.56
2023-01-30T22:47:10.563Z,10.15
2023-01-30T22:49:39.652Z,10.16
2023-01-30T22:52:07.764Z,10.33
2023-01-30T22:54:35.795Z,10.34
2023-01-30T22:57:03.997Z,10.46
2023-01-30T22:59:33.224Z,10.54
2023-01-30T23:02:01.204Z,10.11
2023-01-30T23:04:30.012Z,10.53
2023-01-30T23:06:59.588Z,10.48
2023-01-30T23:09:27.645Z,10.16
2023-01-30T23:12:16.167Z,9.91
2023-01-30T23:14:46.235Z,9.61
2023-01-30T23:17:32.199Z,9.73
2023-01-30T23:20:00.201Z,9.66
2023-01-30T23:22:28.564Z,9.54
2023-01-30T23:24:56.618Z,9.86
2023-01-30T23:27:25.684Z,9.54
2023-01-30T23:29:55.566Z,9.64
2023-01-30T23:32:23.853Z,9.11
2023-01-30T23:34:52.015Z,9.42
2023-01-30T23:37:41.326Z,9.05
2023-01-30T23:40:10.651Z,9.51
2023-01-30T23:42:39.224Z,9.53
2023-01-30T23:45:10.007Z,9.80
2023-01-30T23:47:38.856Z,9.65
2023-01-30T23:50:07.484Z,9.35
2023-01-30T23:52:35.542Z,9.44
2023-01-30T23:55:04.182Z,9.19
2023-01-30T23:57:32.137Z,9.66
